sensor_id;sensor_type;location;lat;lon;timestamp;P1;durP1;ratioP1;P2;durP2;ratioP2
17564;SDS011;62994;52.126;5.596;2023-02-28T00:00:26;2.83;;;2.63;;
17564;SDS011;62994;52.126;5.596;2023-02-28T00:02:53;2.57;;;2.33;;
17564;SDS011;62994;52.126;5.596;2023-02-28T00:05:22;3.23;;;2.80;;
17564;SDS011;62994;52.126;5.596;2023-02-28T00:07:53;3.37;;;2.33;;
17564;SDS011;62994;52.126;5.596;2023-02-28T00:10:29;2.97;;;2.67;;
17564;SDS011;62994;52.126;5.596;2023-02-28T00:13:07;3.93;;;2.37;;
17564;SDS011;62994;52.126;5.596;2023-02-28T00:15:36;2.50;;;2.30;;
17564;SDS011;62994;52.126;5.596;2023-02-28T00:18:05;3.60;;;2.90;;
17564;SDS011;62994;52.126;5.596;2023-02-28T00:20:40;2.47;;;2.27;;
17564;SDS011;62994;52.126;5.596;2023-02-28T00:23:15;4.13;;;2.87;;
17564;SDS011;62994;52.126;5.596;2023-02-28T00:25:42;2.37;;;2.17;;
17564;SDS011;62994;52.126;5.596;2023-02-28T00:28:11;3.70;;;2.27;;
17564;SDS011;62994;52.126;5.596;2023-02-28T00:30:38;3.83;;;2.17;;
17564;SDS011;62994;52.126;5.596;2023-02-28T00:33:05;3.23;;;1.87;;
17564;SDS011;62994;52.126;5.596;2023-02-28T00:35:35;4.73;;;2.13;;
17564;SDS011;62994;52.126;5.596;2023-02-28T00:38:05;3.40;;;2.00;;
17564;SDS011;62994;52.126;5.596;2023-02-28T00:40:34;3.87;;;2.20;;
17564;SDS011;62994;52.126;5.596;2023-02-28T00:43:02;2.40;;;2.20;;
17564;SDS011;62994;52.126;5.596;2023-02-28T00:45:35;2.13;;;2.03;;
17564;SDS011;62994;52.126;5.596;2023-02-28T00:48:07;2.40;;;2.20;;
17564;SDS011;62994;52.126;5.596;2023-02-28T00:50:35;2.30;;;2.10;;
17564;SDS011;62994;52.126;5.596;2023-02-28T00:53:04;6.27;;;2.30;;
17564;SDS011;62994;52.126;5.596;2023-02-28T00:55:36;4.07;;;2.47;;
17564;SDS011;62994;52.126;5.596;2023-02-28T00:58:05;2.90;;;2.50;;
17564;SDS011;62994;52.126;5.596;2023-02-28T01:00:38;4.33;;;2.50;;
17564;SDS011;62994;52.126;5.596;2023-02-28T01:03:07;2.60;;;2.50;;
17564;SDS011;62994;52.126;5.596;2023-02-28T01:05:34;2.67;;;2.47;;
17564;SDS011;62994;52.126;5.596;2023-02-28T01:08:02;4.07;;;2.77;;
17564;SDS011;62994;52.126;5.596;2023-02-28T01:10:30;3.10;;;2.80;;
17564;SDS011;62994;52.126;5.596;2023-02-28T01:12:59;4.17;;;2.40;;
17564;SDS011;62994;52.126;5.596;2023-02-28T01:15:26;2.37;;;2.17;;
17564;SDS011;62994;52.126;5.596;2023-02-28T01:17:57;3.33;;;2.60;;
17564;SDS011;62994;52.126;5.596;2023-02-28T01:20:28;2.13;;;2.00;;
17564;SDS011;62994;52.126;5.596;2023-02-28T01:22:57;2.20;;;2.10;;
17564;SDS011;62994;52.126;5.596;2023-02-28T01:25:27;4.07;;;2.20;;
17564;SDS011;62994;52.126;5.596;2023-02-28T01:28:00;2.80;;;2.13;;
17564;SDS011;62994;52.126;5.596;2023-02-28T01:30:28;2.00;;;1.90;;
17564;SDS011;62994;52.126;5.596;2023-02-28T01:33:00;3.93;;;2.47;;
17564;SDS011;62994;52.126;5.596;2023-02-28T01:35:28;2.50;;;2.30;;
17564;SDS011;62994;52.126;5.596;2023-02-28T01:37:58;2.83;;;2.63;;
17564;SDS011;62994;52.126;5.596;2023-02-28T01:40:27;2.53;;;2.20;;
17564;SDS011;62994;52.126;5.596;2023-02-28T01:42:54;2.67;;;2.20;;
17564;SDS011;62994;52.126;5.596;2023-02-28T01:45:22;2.37;;;2.27;;
17564;SDS011;62994;52.126;5.596;2023-02-28T01:47:55;2.93;;;2.50;;
17564;SDS011;62994;52.126;5.596;2023-02-28T01:50:33;2.77;;;2.50;;
17564;SDS011;62994;52.126;5.596;2023-02-28T01:53:06;3.13;;;2.60;;
17564;SDS011;62994;52.126;5.596;2023-02-28T01:55:49;2.33;;;2.13;;
17564;SDS011;62994;52.126;5.596;2023-02-28T01:58:21;2.53;;;2.10;;
17564;SDS011;62994;52.126;5.596;2023-02-28T02:00:55;3.20;;;2.20;;
17564;SDS011;62994;52.126;5.596;2023-02-28T02:03:27;2.90;;;2.70;;
17564;SDS011;62994;52.126;5.596;2023-02-28T02:05:58;2.63;;;2.43;;
17564;SDS011;62994;52.126;5.596;2023-02-28T02:08:26;4.30;;;2.20;;
17564;SDS011;62994;52.126;5.596;2023-02-28T02:10:55;2.73;;;2.47;;
17564;SDS011;62994;52.126;5.596;2023-02-28T02:13:32;3.63;;;2.20;;
17564;SDS011;62994;52.126;5.596;2023-02-28T02:16:10;3.93;;;2.67;;
17564;SDS011;62994;52.126;5.596;2023-02-28T02:18:51;4.27;;;2.43;;
17564;SDS011;62994;52.126;5.596;2023-02-28T02:34:00;3.10;;;2.40;;
17564;SDS011;62994;52.126;5.596;2023-02-28T02:36:57;2.20;;;2.10;;
17564;SDS011;62994;52.126;5.596;2023-02-28T02:39:35;2.50;;;2.30;;
17564;SDS011;62994;52.126;5.596;2023-02-28T02:42:14;2.93;;;2.53;;
17564;SDS011;62994;52.126;5.596;2023-02-28T02:44:48;2.83;;;2.63;;
17564;SDS011;62994;52.126;5.596;2023-02-28T02:47:21;3.47;;;2.30;;
17564;SDS011;62994;52.126;5.596;2023-02-28T02:49:54;2.80;;;2.60;;
17564;SDS011;62994;52.126;5.596;2023-02-28T02:52:29;5.20;;;2.43;;
17564;SDS011;62994;52.126;5.596;2023-02-28T02:55:01;2.57;;;2.37;;
17564;SDS011;62994;52.126;5.596;2023-02-28T02:57:31;2.87;;;2.40;;
17564;SDS011;62994;52.126;5.596;2023-02-28T03:00:04;2.40;;;2.20;;
17564;SDS011;62994;52.126;5.596;2023-02-28T03:02:37;3.53;;;2.30;;
17564;SDS011;62994;52.126;5.596;2023-02-28T03:05:08;3.43;;;2.60;;
17564;SDS011;62994;52.126;5.596;2023-02-28T03:07:42;2.90;;;2.70;;
17564;SDS011;62994;52.126;5.596;2023-02-28T03:16:22;2.90;;;2.70;;
17564;SDS011;62994;52.126;5.596;2023-02-28T03:19:14;4.37;;;3.07;;
17564;SDS011;62994;52.126;5.596;2023-02-28T03:21:56;2.67;;;2.47;;
17564;SDS011;62994;52.126;5.596;2023-02-28T03:24:43;2.60;;;2.50;;
17564;SDS011;62994;52.126;5.596;2023-02-28T03:27:19;7.87;;;2.70;;
17564;SDS011;62994;52.126;5.596;2023-02-28T03:29:54;3.37;;;2.40;;
17564;SDS011;62994;52.126;5.596;2023-02-28T03:32:35;2.50;;;2.30;;
17564;SDS011;62994;52.126;5.596;2023-02-28T03:35:08;3.23;;;2.97;;
17564;SDS011;62994;52.126;5.596;2023-02-28T03:37:42;3.10;;;2.90;;
17564;SDS011;62994;52.126;5.596;2023-02-28T03:40:15;2.70;;;2.53;;
17564;SDS011;62994;52.126;5.596;2023-02-28T03:42:53;4.50;;;2.93;;
17564;SDS011;62994;52.126;5.596;2023-02-28T03:45:25;3.47;;;2.83;;
17564;SDS011;62994;52.126;5.596;2023-02-28T03:48:01;3.67;;;3.30;;
17564;SDS011;62994;52.126;5.596;2023-02-28T03:50:34;4.00;;;2.70;;
17564;SDS011;62994;52.126;5.596;2023-02-28T03:53:06;2.87;;;2.57;;
17564;SDS011;62994;52.126;5.596;2023-02-28T03:55:40;3.00;;;2.90;;
17564;SDS011;62994;52.126;5.596;2023-02-28T03:58:12;3.60;;;3.40;;
17564;SDS011;62994;52.126;5.596;2023-02-28T04:00:43;2.87;;;2.63;;
17564;SDS011;62994;52.126;5.596;2023-02-28T04:03:15;3.77;;;2.87;;
17564;SDS011;62994;52.126;5.596;2023-02-28T04:05:49;3.87;;;3.23;;
17564;SDS011;62994;52.126;5.596;2023-02-28T04:08:22;3.17;;;2.87;;
17564;SDS011;62994;52.126;5.596;2023-02-28T04:10:55;6.17;;;3.30;;
17564;SDS011;62994;52.126;5.596;2023-02-28T04:13:34;2.97;;;2.77;;
17564;SDS011;62994;52.126;5.596;2023-02-28T04:16:01;3.80;;;2.70;;
17564;SDS011;62994;52.126;5.596;2023-02-28T04:18:36;3.70;;;2.80;;
17564;SDS011;62994;52.126;5.596;2023-02-28T04:21:10;2.90;;;2.60;;
17564;SDS011;62994;52.126;5.596;2023-02-28T04:23:42;2.70;;;2.50;;
17564;SDS011;62994;52.126;5.596;2023-02-28T04:26:10;3.10;;;2.90;;
17564;SDS011;62994;52.126;5.596;2023-02-28T04:28:39;3.40;;;2.63;;
17564;SDS011;62994;52.126;5.596;2023-02-28T04:31:14;2.50;;;2.40;;
17564;SDS011;62994;52.126;5.596;2023-02-28T04:33:47;4.27;;;2.80;;
17564;SDS011;62994;52.126;5.596;2023-02-28T04:36:14;2.57;;;2.43;;
17564;SDS011;62994;52.126;5.596;2023-02-28T04:38:49;2.73;;;2.53;;
17564;SDS011;62994;52.126;5.596;2023-02-28T04:41:18;2.60;;;2.40;;
17564;SDS011;62994;52.126;5.596;2023-02-28T04:43:47;2.63;;;2.43;;
17564;SDS011;62994;52.126;5.596;2023-02-28T04:46:21;2.60;;;2.40;;
17564;SDS011;62994;52.126;5.596;2023-02-28T04:48:49;2.17;;;2.07;;
17564;SDS011;62994;52.126;5.596;2023-02-28T04:51:17;2.90;;;2.70;;
17564;SDS011;62994;52.126;5.596;2023-02-28T04:53:51;2.30;;;2.20;;
17564;SDS011;62994;52.126;5.596;2023-02-28T04:56:20;3.53;;;2.57;;
17564;SDS011;62994;52.126;5.596;2023-02-28T04:58:48;2.63;;;2.53;;
17564;SDS011;62994;52.126;5.596;2023-02-28T05:01:19;2.27;;;2.17;;
17564;SDS011;62994;52.126;5.596;2023-02-28T05:03:55;3.23;;;2.40;;
17564;SDS011;62994;52.126;5.596;2023-02-28T05:06:28;3.07;;;2.20;;
17564;SDS011;62994;52.126;5.596;2023-02-28T05:08:58;3.23;;;2.50;;
17564;SDS011;62994;52.126;5.596;2023-02-28T05:11:26;2.53;;;2.33;;
17564;SDS011;62994;52.126;5.596;2023-02-28T05:13:59;5.67;;;2.97;;
17564;SDS011;62994;52.126;5.596;2023-02-28T05:16:33;2.50;;;2.40;;
17564;SDS011;62994;52.126;5.596;2023-02-28T05:19:00;2.60;;;2.30;;
17564;SDS011;62994;52.126;5.596;2023-02-28T05:21:28;2.60;;;2.40;;
17564;SDS011;62994;52.126;5.596;2023-02-28T05:23:59;2.50;;;2.30;;
17564;SDS011;62994;52.126;5.596;2023-02-28T05:26:33;2.37;;;2.20;;
17564;SDS011;62994;52.126;5.596;2023-02-28T05:29:01;2.67;;;1.97;;
17564;SDS011;62994;52.126;5.596;2023-02-28T05:31:28;2.53;;;2.33;;
17564;SDS011;62994;52.126;5.596;2023-02-28T05:33:55;2.83;;;2.63;;
17564;SDS011;62994;52.126;5.596;2023-02-28T05:36:29;2.57;;;2.47;;
17564;SDS011;62994;52.126;5.596;2023-02-28T05:39:05;3.83;;;3.53;;
17564;SDS011;62994;52.126;5.596;2023-02-28T05:41:38;3.47;;;3.23;;
17564;SDS011;62994;52.126;5.596;2023-02-28T05:44:06;2.50;;;2.40;;
17564;SDS011;62994;52.126;5.596;2023-02-28T05:46:33;2.40;;;2.20;;
17564;SDS011;62994;52.126;5.596;2023-02-28T05:49:02;2.47;;;2.37;;
17564;SDS011;62994;52.126;5.596;2023-02-28T05:51:34;2.47;;;2.27;;
17564;SDS011;62994;52.126;5.596;2023-02-28T05:54:08;2.27;;;2.17;;
17564;SDS011;62994;52.126;5.596;2023-02-28T05:56:39;2.20;;;2.10;;
17564;SDS011;62994;52.126;5.596;2023-02-28T05:59:10;2.43;;;2.23;;
17564;SDS011;62994;52.126;5.596;2023-02-28T06:01:39;2.37;;;2.27;;
17564;SDS011;62994;52.126;5.596;2023-02-28T06:04:08;3.00;;;2.80;;
17564;SDS011;62994;52.126;5.596;2023-02-28T06:06:39;2.63;;;2.53;;
17564;SDS011;62994;52.126;5.596;2023-02-28T06:09:09;2.30;;;2.20;;
17564;SDS011;62994;52.126;5.596;2023-02-28T06:11:36;2.30;;;2.20;;
17564;SDS011;62994;52.126;5.596;2023-02-28T06:14:06;3.43;;;2.20;;
17564;SDS011;62994;52.126;5.596;2023-02-28T06:16:43;2.27;;;2.17;;
17564;SDS011;62994;52.126;5.596;2023-02-28T06:19:13;2.60;;;2.50;;
17564;SDS011;62994;52.126;5.596;2023-02-28T06:21:44;2.67;;;2.47;;
17564;SDS011;62994;52.126;5.596;2023-02-28T06:24:25;4.90;;;2.80;;
17564;SDS011;62994;52.126;5.596;2023-02-28T06:26:54;2.60;;;2.50;;
17564;SDS011;62994;52.126;5.596;2023-02-28T06:29:30;3.43;;;2.83;;
17564;SDS011;62994;52.126;5.596;2023-02-28T06:31:57;3.17;;;2.87;;
17564;SDS011;62994;52.126;5.596;2023-02-28T06:34:27;3.27;;;3.00;;
17564;SDS011;62994;52.126;5.596;2023-02-28T06:36:58;2.60;;;2.40;;
17564;SDS011;62994;52.126;5.596;2023-02-28T06:39:30;2.50;;;2.30;;
17564;SDS011;62994;52.126;5.596;2023-02-28T06:41:58;3.83;;;2.53;;
17564;SDS011;62994;52.126;5.596;2023-02-28T06:44:25;11.00;;;2.40;;
17564;SDS011;62994;52.126;5.596;2023-02-28T06:47:00;2.43;;;2.33;;
17564;SDS011;62994;52.126;5.596;2023-02-28T06:49:28;2.20;;;2.10;;
17564;SDS011;62994;52.126;5.596;2023-02-28T06:51:57;2.50;;;2.40;;
17564;SDS011;62994;52.126;5.596;2023-02-28T06:54:26;5.53;;;2.47;;
17564;SDS011;62994;52.126;5.596;2023-02-28T06:56:59;2.97;;;2.77;;
17564;SDS011;62994;52.126;5.596;2023-02-28T06:59:28;2.90;;;2.60;;
17564;SDS011;62994;52.126;5.596;2023-02-28T07:01:57;2.92;;;2.72;;
17564;SDS011;62994;52.126;5.596;2023-02-28T07:04:24;2.70;;;2.60;;
17564;SDS011;62994;52.126;5.596;2023-02-28T07:06:59;2.80;;;2.60;;
17564;SDS011;62994;52.126;5.596;2023-02-28T07:09:29;2.37;;;2.20;;
17564;SDS011;62994;52.126;5.596;2023-02-28T07:11:56;2.67;;;2.57;;
17564;SDS011;62994;52.126;5.596;2023-02-28T07:14:27;2.97;;;2.37;;
17564;SDS011;62994;52.126;5.596;2023-02-28T07:16:54;2.37;;;2.27;;
17564;SDS011;62994;52.126;5.596;2023-02-28T07:19:24;2.60;;;2.40;;
17564;SDS011;62994;52.126;5.596;2023-02-28T07:21:53;2.67;;;2.47;;
17564;SDS011;62994;52.126;5.596;2023-02-28T07:24:22;2.77;;;2.57;;
17564;SDS011;62994;52.126;5.596;2023-02-28T07:26:53;3.27;;;2.67;;
17564;SDS011;62994;52.126;5.596;2023-02-28T07:29:20;4.60;;;2.43;;
17564;SDS011;62994;52.126;5.596;2023-02-28T07:31:55;4.67;;;2.93;;
17564;SDS011;62994;52.126;5.596;2023-02-28T07:34:27;5.30;;;3.10;;
17564;SDS011;62994;52.126;5.596;2023-02-28T07:36:56;3.30;;;3.00;;
17564;SDS011;62994;52.126;5.596;2023-02-28T07:39:34;4.77;;;2.83;;
17564;SDS011;62994;52.126;5.596;2023-02-28T07:42:06;4.03;;;3.03;;
17564;SDS011;62994;52.126;5.596;2023-02-28T07:44:37;4.33;;;3.10;;
17564;SDS011;62994;52.126;5.596;2023-02-28T07:47:09;3.47;;;2.90;;
17564;SDS011;62994;52.126;5.596;2023-02-28T07:49:40;3.00;;;2.90;;
17564;SDS011;62994;52.126;5.596;2023-02-28T07:52:14;3.40;;;3.13;;
17564;SDS011;62994;52.126;5.596;2023-02-28T07:54:43;4.43;;;3.30;;
17564;SDS011;62994;52.126;5.596;2023-02-28T07:57:13;7.07;;;3.57;;
17564;SDS011;62994;52.126;5.596;2023-02-28T07:59:48;3.80;;;3.50;;
17564;SDS011;62994;52.126;5.596;2023-02-28T08:02:18;4.37;;;4.07;;
17564;SDS011;62994;52.126;5.596;2023-02-28T08:04:52;4.07;;;3.83;;
17564;SDS011;62994;52.126;5.596;2023-02-28T08:07:19;4.50;;;3.90;;
17564;SDS011;62994;52.126;5.596;2023-02-28T08:09:47;3.43;;;3.23;;
17564;SDS011;62994;52.126;5.596;2023-02-28T08:12:17;4.10;;;3.10;;
17564;SDS011;62994;52.126;5.596;2023-02-28T08:14:47;3.60;;;3.40;;
17564;SDS011;62994;52.126;5.596;2023-02-28T08:17:25;6.50;;;3.10;;
17564;SDS011;62994;52.126;5.596;2023-02-28T08:19:58;2.73;;;2.53;;
17564;SDS011;62994;52.126;5.596;2023-02-28T08:22:25;4.43;;;2.70;;
17564;SDS011;62994;52.126;5.596;2023-02-28T08:24:55;3.00;;;2.80;;
17564;SDS011;62994;52.126;5.596;2023-02-28T08:27:24;4.13;;;2.40;;
17564;SDS011;62994;52.126;5.596;2023-02-28T08:29:53;3.10;;;2.80;;
17564;SDS011;62994;52.126;5.596;2023-02-28T08:32:30;2.80;;;2.70;;
17564;SDS011;62994;52.126;5.596;2023-02-28T08:35:08;4.10;;;2.40;;
17564;SDS011;62994;52.126;5.596;2023-02-28T08:37:39;5.63;;;2.23;;
17564;SDS011;62994;52.126;5.596;2023-02-28T08:40:14;3.00;;;2.80;;
17564;SDS011;62994;52.126;5.596;2023-02-28T08:42:44;3.37;;;2.47;;
17564;SDS011;62994;52.126;5.596;2023-02-28T08:45:17;4.00;;;1.97;;
17564;SDS011;62994;52.126;5.596;2023-02-28T08:48:01;2.13;;;1.70;;
17564;SDS011;62994;52.126;5.596;2023-02-28T08:50:28;1.60;;;1.50;;
17564;SDS011;62994;52.126;5.596;2023-02-28T08:52:58;1.80;;;1.70;;
17564;SDS011;62994;52.126;5.596;2023-02-28T08:55:29;1.30;;;1.23;;
17564;SDS011;62994;52.126;5.596;2023-02-28T08:58:05;1.20;;;1.20;;
17564;SDS011;62994;52.126;5.596;2023-02-28T09:00:32;1.20;;;1.20;;
17564;SDS011;62994;52.126;5.596;2023-02-28T09:03:03;1.20;;;1.10;;
17564;SDS011;62994;52.126;5.596;2023-02-28T09:05:32;1.33;;;1.00;;
17564;SDS011;62994;52.126;5.596;2023-02-28T09:08:05;0.97;;;0.93;;
17564;SDS011;62994;52.126;5.596;2023-02-28T09:10:33;0.80;;;0.80;;
17564;SDS011;62994;52.126;5.596;2023-02-28T09:13:01;1.60;;;1.50;;
17564;SDS011;62994;52.126;5.596;2023-02-28T09:15:36;1.43;;;1.33;;
17564;SDS011;62994;52.126;5.596;2023-02-28T09:18:14;1.10;;;1.10;;
17564;SDS011;62994;52.126;5.596;2023-02-28T09:20:42;0.98;;;0.98;;
17564;SDS011;62994;52.126;5.596;2023-02-28T09:23:15;0.90;;;0.90;;
17564;SDS011;62994;52.126;5.596;2023-02-28T09:25:45;1.10;;;1.10;;
17564;SDS011;62994;52.126;5.596;2023-02-28T09:28:27;1.10;;;1.00;;
17564;SDS011;62994;52.126;5.596;2023-02-28T09:30:54;1.17;;;1.17;;
17564;SDS011;62994;52.126;5.596;2023-02-28T09:33:25;1.33;;;1.33;;
17564;SDS011;62994;52.126;5.596;2023-02-28T09:35:59;0.93;;;0.93;;
17564;SDS011;62994;52.126;5.596;2023-02-28T09:38:28;1.10;;;1.10;;
17564;SDS011;62994;52.126;5.596;2023-02-28T09:40:58;3.17;;;1.90;;
17564;SDS011;62994;52.126;5.596;2023-02-28T09:43:32;1.70;;;1.60;;
17564;SDS011;62994;52.126;5.596;2023-02-28T09:46:10;1.67;;;1.58;;
17564;SDS011;62994;52.126;5.596;2023-02-28T09:48:50;3.30;;;2.17;;
17564;SDS011;62994;52.126;5.596;2023-02-28T09:51:27;3.63;;;2.30;;
17564;SDS011;62994;52.126;5.596;2023-02-28T09:54:16;1.20;;;1.20;;
17564;SDS011;62994;52.126;5.596;2023-02-28T09:56:47;1.40;;;1.30;;
17564;SDS011;62994;52.126;5.596;2023-02-28T09:59:24;1.08;;;1.02;;
17564;SDS011;62994;52.126;5.596;2023-02-28T10:02:20;1.10;;;1.10;;
17564;SDS011;62994;52.126;5.596;2023-02-28T10:05:06;0.85;;;0.85;;
17564;SDS011;62994;52.126;5.596;2023-02-28T10:07:45;1.00;;;1.00;;
17564;SDS011;62994;52.126;5.596;2023-02-28T10:10:27;1.10;;;1.10;;
17564;SDS011;62994;52.126;5.596;2023-02-28T10:12:58;2.92;;;1.20;;
17564;SDS011;62994;52.126;5.596;2023-02-28T10:15:29;1.10;;;1.10;;
17564;SDS011;62994;52.126;5.596;2023-02-28T10:18:05;1.13;;;1.13;;
17564;SDS011;62994;52.126;5.596;2023-02-28T10:20:43;1.15;;;1.15;;
17564;SDS011;62994;52.126;5.596;2023-02-28T10:23:13;1.27;;;0.90;;
17564;SDS011;62994;52.126;5.596;2023-02-28T10:25:44;1.33;;;1.13;;
17564;SDS011;62994;52.126;5.596;2023-02-28T10:28:20;1.30;;;1.20;;
17564;SDS011;62994;52.126;5.596;2023-02-28T10:30:52;1.00;;;1.00;;
17564;SDS011;62994;52.126;5.596;2023-02-28T10:33:23;1.20;;;1.20;;
17564;SDS011;62994;52.126;5.596;2023-02-28T10:35:55;1.00;;;1.00;;
17564;SDS011;62994;52.126;5.596;2023-02-28T10:38:24;1.08;;;1.08;;
17564;SDS011;62994;52.126;5.596;2023-02-28T10:41:03;1.00;;;1.00;;
17564;SDS011;62994;52.126;5.596;2023-02-28T10:43:38;1.08;;;1.08;;
17564;SDS011;62994;52.126;5.596;2023-02-28T10:46:14;1.38;;;1.27;;
17564;SDS011;62994;52.126;5.596;2023-02-28T10:48:59;0.93;;;0.93;;
17564;SDS011;62994;52.126;5.596;2023-02-28T10:51:36;1.50;;;1.40;;
17564;SDS011;62994;52.126;5.596;2023-02-28T10:54:04;1.23;;;1.23;;
17564;SDS011;62994;52.126;5.596;2023-02-28T10:56:46;1.10;;;1.05;;
17564;SDS011;62994;52.126;5.596;2023-02-28T10:59:43;1.40;;;1.30;;
17564;SDS011;62994;52.126;5.596;2023-02-28T11:02:29;1.55;;;1.45;;
17564;SDS011;62994;52.126;5.596;2023-02-28T11:05:01;1.40;;;1.30;;
17564;SDS011;62994;52.126;5.596;2023-02-28T11:07:52;0.95;;;0.93;;
17564;SDS011;62994;52.126;5.596;2023-02-28T11:10:21;1.40;;;1.30;;
17564;SDS011;62994;52.126;5.596;2023-02-28T11:12:56;1.20;;;1.20;;
17564;SDS011;62994;52.126;5.596;2023-02-28T11:15:25;0.98;;;0.98;;
17564;SDS011;62994;52.126;5.596;2023-02-28T11:17:57;1.80;;;1.23;;
17564;SDS011;62994;52.126;5.596;2023-02-28T11:20:32;2.08;;;1.40;;
17564;SDS011;62994;52.126;5.596;2023-02-28T11:23:05;0.98;;;0.98;;
17564;SDS011;62994;52.126;5.596;2023-02-28T11:25:46;1.23;;;1.20;;
17564;SDS011;62994;52.126;5.596;2023-02-28T11:28:26;1.20;;;1.20;;
17564;SDS011;62994;52.126;5.596;2023-02-28T11:31:02;1.05;;;1.05;;
17564;SDS011;62994;52.126;5.596;2023-02-28T11:33:37;1.95;;;1.23;;
17564;SDS011;62994;52.126;5.596;2023-02-28T11:36:11;1.30;;;1.20;;
17564;SDS011;62994;52.126;5.596;2023-02-28T11:38:43;1.13;;;1.13;;
17564;SDS011;62994;52.126;5.596;2023-02-28T11:47:00;0.90;;;0.90;;
17564;SDS011;62994;52.126;5.596;2023-02-28T11:49:41;1.33;;;1.23;;
17564;SDS011;62994;52.126;5.596;2023-02-28T11:52:34;1.50;;;1.40;;
17564;SDS011;62994;52.126;5.596;2023-02-28T11:55:16;1.35;;;1.25;;
17564;SDS011;62994;52.126;5.596;2023-02-28T12:01:05;1.52;;;1.27;;
17564;SDS011;62994;52.126;5.596;2023-02-28T12:03:44;1.55;;;1.45;;
17564;SDS011;62994;52.126;5.596;2023-02-28T12:06:22;1.50;;;1.40;;
17564;SDS011;62994;52.126;5.596;2023-02-28T12:09:02;1.17;;;1.15;;
17564;SDS011;62994;52.126;5.596;2023-02-28T12:12:06;1.40;;;1.40;;
17564;SDS011;62994;52.126;5.596;2023-02-28T12:14:47;2.70;;;1.13;;
17564;SDS011;62994;52.126;5.596;2023-02-28T12:17:27;1.27;;;1.20;;
17564;SDS011;62994;52.126;5.596;2023-02-28T12:20:02;0.95;;;0.95;;
17564;SDS011;62994;52.126;5.596;2023-02-28T12:22:41;1.13;;;1.13;;
17564;SDS011;62994;52.126;5.596;2023-02-28T12:25:21;1.50;;;1.40;;
17564;SDS011;62994;52.126;5.596;2023-02-28T12:28:12;1.15;;;1.10;;
17564;SDS011;62994;52.126;5.596;2023-02-28T12:30:43;1.98;;;1.30;;
17564;SDS011;62994;52.126;5.596;2023-02-28T12:33:17;1.52;;;1.38;;
17564;SDS011;62994;52.126;5.596;2023-02-28T12:35:52;1.20;;;1.20;;
17564;SDS011;62994;52.126;5.596;2023-02-28T12:38:22;1.30;;;1.23;;
17564;SDS011;62994;52.126;5.596;2023-02-28T12:40:53;1.25;;;1.15;;
17564;SDS011;62994;52.126;5.596;2023-02-28T12:43:27;1.52;;;1.38;;
17564;SDS011;62994;52.126;5.596;2023-02-28T12:45:59;1.42;;;1.40;;
17564;SDS011;62994;52.126;5.596;2023-02-28T12:48:31;1.58;;;1.20;;
17564;SDS011;62994;52.126;5.596;2023-02-28T12:51:03;1.17;;;1.17;;
17564;SDS011;62994;52.126;5.596;2023-02-28T12:53:39;1.60;;;1.50;;
17564;SDS011;62994;52.126;5.596;2023-02-28T12:56:19;1.38;;;1.30;;
17564;SDS011;62994;52.126;5.596;2023-02-28T12:58:56;1.10;;;1.00;;
17564;SDS011;62994;52.126;5.596;2023-02-28T13:04:33;2.55;;;1.42;;
17564;SDS011;62994;52.126;5.596;2023-02-28T13:10:17;1.15;;;1.15;;
17564;SDS011;62994;52.126;5.596;2023-02-28T13:12:48;1.23;;;1.23;;
17564;SDS011;62994;52.126;5.596;2023-02-28T13:15:18;1.50;;;1.40;;
17564;SDS011;62994;52.126;5.596;2023-02-28T13:17:50;1.15;;;1.15;;
17564;SDS011;62994;52.126;5.596;2023-02-28T13:20:18;1.80;;;1.70;;
17564;SDS011;62994;52.126;5.596;2023-02-28T13:22:47;1.63;;;1.52;;
17564;SDS011;62994;52.126;5.596;2023-02-28T13:34:35;1.45;;;1.40;;
17564;SDS011;62994;52.126;5.596;2023-02-28T13:37:32;1.52;;;1.42;;
17564;SDS011;62994;52.126;5.596;2023-02-28T13:40:22;1.30;;;1.30;;
17564;SDS011;62994;52.126;5.596;2023-02-28T13:43:03;1.05;;;1.05;;
17564;SDS011;62994;52.126;5.596;2023-02-28T13:45:33;1.60;;;1.48;;
17564;SDS011;62994;52.126;5.596;2023-02-28T13:48:04;1.23;;;1.23;;
17564;SDS011;62994;52.126;5.596;2023-02-28T13:50:42;1.70;;;1.60;;
17564;SDS011;62994;52.126;5.596;2023-02-28T13:53:21;1.85;;;1.75;;
17564;SDS011;62994;52.126;5.596;2023-02-28T13:56:03;1.70;;;1.60;;
17564;SDS011;62994;52.126;5.596;2023-02-28T13:58:41;1.77;;;1.63;;
17564;SDS011;62994;52.126;5.596;2023-02-28T14:01:23;1.80;;;1.70;;
17564;SDS011;62994;52.126;5.596;2023-02-28T14:07:09;1.67;;;1.58;;
17564;SDS011;62994;52.126;5.596;2023-02-28T14:09:45;1.70;;;1.60;;
17564;SDS011;62994;52.126;5.596;2023-02-28T14:15:48;1.50;;;1.50;;
17564;SDS011;62994;52.126;5.596;2023-02-28T14:18:23;1.50;;;1.40;;
17564;SDS011;62994;52.126;5.596;2023-02-28T14:20:58;1.75;;;1.65;;
17564;SDS011;62994;52.126;5.596;2023-02-28T14:23:50;1.40;;;1.40;;
17564;SDS011;62994;52.126;5.596;2023-02-28T14:26:49;1.48;;;1.48;;
17564;SDS011;62994;52.126;5.596;2023-02-28T14:29:46;1.30;;;1.27;;
17564;SDS011;62994;52.126;5.596;2023-02-28T14:32:41;2.05;;;1.70;;
17564;SDS011;62994;52.126;5.596;2023-02-28T14:35:19;1.98;;;1.40;;
17564;SDS011;62994;52.126;5.596;2023-02-28T14:37:54;1.75;;;1.65;;
17564;SDS011;62994;52.126;5.596;2023-02-28T14:40:24;1.13;;;1.13;;
17564;SDS011;62994;52.126;5.596;2023-02-28T14:42:55;1.60;;;1.50;;
17564;SDS011;62994;52.126;5.596;2023-02-28T14:45:24;1.77;;;1.67;;
17564;SDS011;62994;52.126;5.596;2023-02-28T14:47:55;2.97;;;1.40;;
17564;SDS011;62994;52.126;5.596;2023-02-28T14:50:24;1.50;;;1.40;;
17564;SDS011;62994;52.126;5.596;2023-02-28T14:52:55;1.58;;;1.48;;
17564;SDS011;62994;52.126;5.596;2023-02-28T14:55:26;1.30;;;1.30;;
17564;SDS011;62994;52.126;5.596;2023-02-28T14:57:55;1.33;;;1.25;;
17564;SDS011;62994;52.126;5.596;2023-02-28T15:00:24;1.40;;;1.40;;
17564;SDS011;62994;52.126;5.596;2023-02-28T15:02:52;1.75;;;1.65;;
17564;SDS011;62994;52.126;5.596;2023-02-28T15:05:27;1.63;;;1.52;;
17564;SDS011;62994;52.126;5.596;2023-02-28T15:08:03;1.60;;;1.50;;
17564;SDS011;62994;52.126;5.596;2023-02-28T15:10:34;1.58;;;1.48;;
17564;SDS011;62994;52.126;5.596;2023-02-28T15:13:01;1.50;;;1.40;;
17564;SDS011;62994;52.126;5.596;2023-02-28T15:15:35;1.70;;;1.60;;
17564;SDS011;62994;52.126;5.596;2023-02-28T15:18:10;2.03;;;1.50;;
17564;SDS011;62994;52.126;5.596;2023-02-28T15:20:45;1.35;;;1.35;;
17564;SDS011;62994;52.126;5.596;2023-02-28T15:23:13;1.70;;;1.60;;
17564;SDS011;62994;52.126;5.596;2023-02-28T15:25:43;1.83;;;1.40;;
17564;SDS011;62994;52.126;5.596;2023-02-28T15:28:12;1.63;;;1.52;;
17564;SDS011;62994;52.126;5.596;2023-02-28T15:30:50;1.30;;;1.30;;
17564;SDS011;62994;52.126;5.596;2023-02-28T15:33:22;1.40;;;1.30;;
17564;SDS011;62994;52.126;5.596;2023-02-28T15:35:50;1.70;;;1.60;;
17564;SDS011;62994;52.126;5.596;2023-02-28T15:38:21;1.58;;;1.48;;
17564;SDS011;62994;52.126;5.596;2023-02-28T15:40:51;5.18;;;1.80;;
17564;SDS011;62994;52.126;5.596;2023-02-28T15:43:23;1.70;;;1.60;;
17564;SDS011;62994;52.126;5.596;2023-02-28T15:45:52;1.25;;;1.17;;
17564;SDS011;62994;52.126;5.596;2023-02-28T15:48:23;1.42;;;1.33;;
17564;SDS011;62994;52.126;5.596;2023-02-28T15:50:55;1.40;;;1.30;;
17564;SDS011;62994;52.126;5.596;2023-02-28T15:53:27;1.48;;;1.40;;
17564;SDS011;62994;52.126;5.596;2023-02-28T15:55:59;2.10;;;1.30;;
17564;SDS011;62994;52.126;5.596;2023-02-28T15:58:28;1.80;;;1.70;;
17564;SDS011;62994;52.126;5.596;2023-02-28T16:01:06;1.58;;;1.45;;
17564;SDS011;62994;52.126;5.596;2023-02-28T16:03:43;1.38;;;1.27;;
17564;SDS011;62994;52.126;5.596;2023-02-28T16:06:30;1.40;;;1.30;;
17564;SDS011;62994;52.126;5.596;2023-02-28T16:09:00;1.95;;;1.85;;
17564;SDS011;62994;52.126;5.596;2023-02-28T16:11:34;2.22;;;1.23;;
17564;SDS011;62994;52.126;5.596;2023-02-28T16:14:04;1.60;;;1.50;;